createdAt,value
2022-09-03T00:03:21.890Z,13.00
2022-09-03T00:08:33.547Z,12.70
2022-09-03T00:13:41.324Z,12.70
2022-09-03T00:18:48.717Z,12.60
2022-09-03T00:23:54.312Z,12.50
2022-09-03T00:29:04.454Z,12.40
2022-09-03T00:34:15.510Z,12.40
2022-09-03T00:39:22.902Z,12.30
2022-09-03T00:44:50.136Z,12.50
2022-09-03T00:50:05.498Z,12.20
2022-09-03T00:55:20.842Z,12.20
2022-09-03T01:00:24.768Z,12.20
2022-09-03T01:06:01.701Z,12.00
2022-09-03T01:11:20.149Z,11.80
2022-09-03T01:16:29.297Z,11.80
2022-09-03T01:21:58.805Z,11.70
2022-09-03T01:27:20.694Z,11.80
2022-09-03T01:32:32.409Z,11.80
2022-09-03T01:37:47.575Z,11.90
2022-09-03T01:43:03.530Z,11.90
2022-09-03T01:48:20.527Z,11.80
2022-09-03T01:53:36.988Z,11.80
2022-09-03T01:58:44.375Z,11.70
2022-09-03T02:03:50.074Z,11.60
2022-09-03T02:08:53.484Z,11.60
2022-09-03T02:14:00.006Z,11.60
2022-09-03T02:19:07.165Z,11.70
2022-09-03T02:24:10.571Z,11.70
2022-09-03T02:29:14.862Z,11.60
2022-09-03T02:34:19.588Z,16.20
2022-09-03T02:39:22.962Z,11.80
2022-09-03T02:44:31.735Z,11.80
2022-09-03T02:49:36.746Z,11.80
2022-09-03T02:54:40.882Z,14.10
2022-09-03T02:59:45.823Z,11.80
2022-09-03T03:04:50.993Z,11.90
2022-09-03T03:09:54.385Z,12.20
2022-09-03T03:14:57.749Z,12.40
2022-09-03T03:20:02.527Z,12.40
2022-09-03T03:25:06.646Z,12.30
2022-09-03T03:30:11.074Z,12.30
2022-09-03T03:35:15.875Z,12.30
2022-09-03T03:40:20.329Z,12.30
2022-09-03T03:45:23.658Z,12.20
2022-09-03T03:50:29.171Z,12.20
2022-09-03T03:55:35.279Z,12.10
2022-09-03T04:00:39.537Z,12.10
2022-09-03T04:05:48.460Z,11.70
2022-09-03T04:10:52.118Z,11.80
2022-09-03T04:16:02.009Z,11.90
2022-09-03T04:21:09.322Z,11.60
2022-09-03T04:26:14.787Z,11.70
2022-09-03T04:31:19.548Z,11.60
2022-09-03T04:36:26.226Z,11.70
2022-09-03T04:41:31.305Z,11.60
2022-09-03T04:46:34.608Z,11.50
2022-09-03T04:51:39.386Z,11.50
2022-09-03T04:56:43.355Z,11.40
2022-09-03T05:01:46.773Z,11.50
2022-09-03T05:06:51.490Z,11.40
2022-09-03T05:11:55.246Z,11.50
2022-09-03T05:16:58.557Z,11.50
2022-09-03T05:22:03.393Z,11.70
2022-09-03T05:27:06.782Z,11.80
2022-09-03T05:32:10.092Z,12.00
2022-09-03T05:37:14.764Z,12.70
2022-09-03T05:42:18.084Z,13.60
2022-09-03T05:47:21.631Z,14.40
2022-09-03T05:52:26.351Z,15.30
2022-09-03T05:57:29.773Z,15.10
2022-09-03T06:02:33.606Z,15.40
2022-09-03T06:07:38.398Z,11.90
2022-09-03T06:12:41.733Z,15.70
2022-09-03T06:17:45.111Z,15.50
2022-09-03T06:22:53.633Z,15.30
2022-09-03T06:27:56.966Z,18.50
2022-09-03T06:33:00.305Z,14.30
2022-09-03T06:38:05.079Z,10.50
2022-09-03T06:43:08.427Z,15.30
2022-09-03T06:48:11.736Z,14.20
2022-09-03T06:53:16.462Z,11.60
2022-09-03T06:58:19.824Z,15.50
2022-09-03T07:03:23.138Z,16.60
2022-09-03T07:08:27.856Z,17.30
2022-09-03T07:13:31.213Z,16.10
2022-09-03T07:18:35.293Z,16.20
2022-09-03T07:23:41.283Z,17.10
2022-09-03T07:28:46.650Z,18.80
2022-09-03T07:33:49.973Z,19.50
2022-09-03T07:38:57.336Z,20.40
2022-09-03T07:44:05.599Z,17.50
2022-09-03T07:49:09.619Z,16.40
2022-09-03T07:54:14.573Z,16.70
2022-09-03T07:59:18.238Z,16.90
2022-09-03T08:04:22.212Z,18.60
2022-09-03T08:09:27.307Z,20.00
2022-09-03T08:14:31.813Z,21.60
2022-09-03T08:19:35.166Z,21.60
2022-09-03T08:24:39.920Z,19.90
2022-09-03T08:29:43.298Z,20.20
2022-09-03T08:34:46.975Z,20.80
2022-09-03T08:39:51.857Z,20.50
2022-09-03T08:44:58.714Z,21.10
2022-09-03T08:50:06.239Z,16.90
2022-09-03T08:55:25.253Z,20.60
2022-09-03T09:00:38.940Z,21.50
2022-09-03T09:05:51.310Z,21.40
2022-09-03T09:11:09.027Z,24.00
2022-09-03T09:16:16.881Z,20.30
2022-09-03T09:21:27.710Z,21.20
2022-09-03T09:26:33.245Z,22.00
2022-09-03T09:31:36.706Z,21.70
2022-09-03T09:36:44.899Z,23.50
2022-09-03T09:42:00.634Z,22.90
2022-09-03T09:47:07.751Z,23.00
2022-09-03T09:52:13.125Z,22.80
2022-09-03T09:57:19.470Z,22.80
2022-09-03T10:02:28.890Z,22.90
2022-09-03T10:07:33.444Z,23.30
2022-09-03T10:12:44.492Z,25.80
2022-09-03T10:17:58.698Z,24.00
2022-09-03T10:23:11.172Z,25.10
2022-09-03T10:28:15.946Z,26.50
2022-09-03T10:33:27.744Z,26.60
2022-09-03T10:38:36.767Z,27.30
2022-09-03T10:43:58.289Z,28.10
2022-09-03T10:49:16.014Z,26.70
2022-09-03T10:54:39.788Z,25.40
2022-09-03T10:59:59.244Z,27.40
2022-09-03T11:05:06.301Z,25.60
2022-09-03T11:10:17.109Z,23.50
2022-09-03T11:15:28.027Z,22.80
2022-09-03T11:20:35.996Z,22.80
2022-09-03T11:25:45.379Z,24.90
2022-09-03T11:31:06.186Z,27.90
2022-09-03T11:36:09.632Z,24.60
2022-09-03T11:41:15.912Z,24.70
2022-09-03T11:46:32.084Z,24.60
2022-09-03T11:51:37.957Z,23.60
2022-09-03T11:56:43.405Z,22.60
2022-09-03T12:01:54.498Z,24.50
2022-09-03T12:07:10.058Z,26.80
2022-09-03T12:12:28.979Z,25.50
2022-09-03T12:17:43.197Z,25.70
2022-09-03T12:22:47.622Z,25.80
2022-09-03T12:27:51.526Z,24.80
2022-09-03T12:33:06.475Z,23.70
2022-09-03T12:38:12.034Z,22.70
2022-09-03T12:54:18.630Z,21.90
2022-09-03T12:59:25.067Z,22.70
2022-09-03T13:04:34.198Z,21.70
2022-09-03T13:09:41.132Z,21.60
2022-09-03T13:14:47.370Z,21.90
2022-09-03T13:20:23.861Z,21.50
2022-09-03T13:25:35.987Z,21.50
2022-09-03T13:30:54.224Z,21.50
2022-09-03T13:36:05.770Z,21.80
2022-09-03T13:41:15.536Z,21.70
2022-09-03T13:46:25.689Z,21.60
2022-09-03T13:51:33.581Z,21.10
2022-09-03T13:56:56.348Z,21.00
2022-09-03T14:02:16.018Z,20.90
2022-09-03T14:07:26.761Z,21.10
2022-09-03T14:12:42.668Z,21.30
2022-09-03T14:17:53.579Z,21.20
2022-09-03T14:23:09.161Z,21.20
2022-09-03T14:28:20.831Z,20.90
2022-09-03T14:33:29.553Z,20.90
2022-09-03T14:38:44.963Z,21.00
2022-09-03T14:44:10.798Z,21.40
2022-09-03T14:49:44.225Z,21.60
2022-09-03T14:55:16.083Z,21.50
2022-09-03T15:00:22.550Z,21.40
2022-09-03T15:05:48.425Z,21.10
2022-09-03T15:10:59.348Z,21.40
2022-09-03T15:16:19.930Z,21.90
2022-09-03T15:21:32.404Z,21.70
2022-09-03T15:26:56.733Z,21.30
2022-09-03T15:32:08.133Z,21.10
2022-09-03T15:37:18.212Z,21.10
2022-09-03T15:42:29.352Z,21.20
2022-09-03T15:47:54.499Z,23.30
2022-09-03T15:53:03.846Z,24.90
2022-09-03T15:58:20.890Z,26.90
2022-09-03T16:22:50.102Z,21.90
2022-09-03T17:19:07.854Z,20.20
2022-09-03T17:24:33.584Z,20.00
2022-09-03T17:29:53.869Z,19.70
2022-09-03T17:35:10.412Z,19.60
2022-09-03T17:40:32.088Z,19.50
2022-09-03T17:45:45.038Z,19.30
2022-09-03T17:50:55.392Z,19.00
2022-09-03T17:56:02.620Z,18.90
2022-09-03T18:01:16.809Z,18.90
2022-09-03T18:06:31.909Z,18.90
2022-09-03T18:11:39.456Z,18.70
2022-09-03T18:16:49.297Z,18.60
2022-09-03T18:22:11.587Z,18.50
2022-09-03T18:27:37.157Z,15.20
2022-09-03T18:32:57.718Z,18.40
2022-09-03T18:38:21.819Z,18.40
2022-09-03T18:43:54.086Z,18.30
2022-09-03T18:49:21.353Z,18.30
2022-09-03T18:55:07.920Z,18.20
2022-09-03T19:00:32.362Z,18.20
2022-09-03T19:06:03.168Z,18.20
2022-09-03T19:11:36.214Z,18.10
2022-09-03T19:17:04.920Z,18.10
2022-09-03T19:22:28.193Z,18.00
2022-09-03T19:27:59.696Z,18.00
2022-09-03T19:33:29.801Z,17.90
2022-09-03T19:39:10.861Z,17.90
2022-09-03T19:44:50.635Z,17.70
2022-09-03T19:50:22.059Z,17.60
2022-09-03T19:55:46.037Z,17.50
2022-09-03T20:01:08.669Z,17.30
2022-09-03T20:06:30.479Z,17.30
2022-09-03T20:11:33.783Z,17.20
2022-09-03T20:16:45.549Z,17.10
2022-09-03T20:21:56.221Z,17.10
2022-09-03T20:27:12.241Z,17.00
2022-09-03T20:32:26.349Z,18.20
2022-09-03T20:37:38.413Z,16.90
2022-09-03T20:42:55.886Z,16.80
2022-09-03T20:48:11.006Z,16.70
2022-09-03T20:53:49.871Z,16.70
2022-09-03T20:59:01.259Z,16.60
2022-09-03T21:04:18.413Z,16.50
2022-09-03T21:09:31.892Z,16.50
2022-09-03T21:14:39.629Z,16.50
2022-09-03T21:19:58.290Z,16.60
2022-09-03T21:25:05.821Z,20.90
2022-09-03T21:30:11.198Z,16.20
2022-09-03T21:35:22.250Z,16.10
2022-09-03T21:40:32.453Z,16.10
2022-09-03T21:45:41.542Z,15.90
2022-09-03T21:50:52.313Z,15.80
2022-09-03T21:56:25.130Z,15.90
2022-09-03T22:01:36.996Z,15.80
2022-09-03T22:06:49.139Z,15.80
2022-09-03T22:11:59.267Z,15.70
2022-09-03T22:17:10.102Z,15.70
2022-09-03T22:22:20.667Z,15.80
2022-09-03T22:27:32.579Z,15.70
2022-09-03T22:32:52.248Z,15.70
2022-09-03T22:38:06.474Z,15.70
2022-09-03T22:43:27.984Z,15.60
2022-09-03T22:48:44.581Z,15.50
2022-09-03T22:54:07.046Z,15.50
2022-09-03T22:59:16.834Z,15.40
2022-09-03T23:04:26.626Z,15.40
2022-09-03T23:09:37.544Z,15.40
2022-09-03T23:14:48.845Z,15.40
2022-09-03T23:19:58.099Z,15.50
2022-09-03T23:25:07.488Z,15.30
2022-09-03T23:30:11.813Z,15.20
2022-09-03T23:35:18.228Z,15.30
2022-09-03T23:40:34.599Z,15.20
2022-09-03T23:45:46.072Z,15.10
2022-09-03T23:50:57.875Z,15.10
2022-09-03T23:56:12.567Z,15.00
